Time;durP1;ratioP1;P1;durP2;ratioP2;P2;SDS_P1;SDS_P2;PMS_P1;PMS_P2;Temp;Humidity;BMP_temperature;BMP_pressure;BME280_temperature;BME280_humidity;BME280_pressure;Samples;Min_cycle;Max_cycle;Signal;HPM_P1;HPM_P2
2023/12/13 00:01:26;;;;;;;91.32;41.53;;;;;;;2.91;100.00;97183.53;5115570;27;20046;-75
2023/12/13 00:03:52;;;;;;;98.47;42.67;;;;;;;3.00;100.00;97204.34;5117532;27;20035;-76
2023/12/13 00:06:18;;;;;;;98.93;44.10;;;;;;;2.92;100.00;97211.69;5117486;27;20486;-76
2023/12/13 00:08:44;;;;;;;97.45;43.53;;;;;;;2.70;100.00;97209.84;5113280;27;20438;-76
2023/12/13 00:11:09;;;;;;;83.82;38.33;;;;;;;2.70;100.00;97212.50;5117201;27;20339;-76
2023/12/13 00:13:35;;;;;;;76.80;34.45;;;;;;;2.72;100.00;97208.00;5117525;27;20098;-76
2023/12/13 00:16:01;;;;;;;78.35;34.08;;;;;;;2.78;100.00;97183.13;5152964;27;20034;-76
2023/12/13 00:18:28;;;;;;;77.15;34.05;;;;;;;2.72;100.00;97176.31;5117398;27;20052;-77
2023/12/13 00:20:53;;;;;;;84.55;35.03;;;;;;;2.87;100.00;97214.50;5117124;27;20019;-77
2023/12/13 00:23:19;;;;;;;79.63;35.03;;;;;;;2.83;100.00;97227.88;5113060;27;20014;-76
2023/12/13 00:25:45;;;;;;;81.88;35.17;;;;;;;2.55;100.00;97186.63;5130876;27;20031;-76
2023/12/13 00:28:10;;;;;;;69.68;30.27;;;;;;;2.67;100.00;97232.84;5130733;27;20023;-76
2023/12/13 00:30:36;;;;;;;86.05;33.95;;;;;;;2.43;100.00;97197.59;5113697;27;20352;-76
2023/12/13 00:33:02;;;;;;;69.50;31.98;;;;;;;2.51;100.00;97208.78;5110602;27;20026;-77
2023/12/13 00:35:27;;;;;;;68.63;30.33;;;;;;;2.49;100.00;97176.28;5116216;27;20527;-77
2023/12/13 00:37:54;;;;;;;72.25;31.45;;;;;;;2.48;100.00;97193.06;5109456;27;20019;-77
2023/12/13 00:40:22;;;;;;;70.20;33.10;;;;;;;2.59;100.00;97201.44;5117023;27;20029;-76
2023/12/13 00:42:51;;;;;;;74.72;33.40;;;;;;;2.76;100.00;97211.41;5117129;27;20019;-76
2023/12/13 00:45:17;;;;;;;80.47;32.40;;;;;;;2.77;100.00;97217.53;5133556;27;20022;-76
2023/12/13 00:47:43;;;;;;;70.82;31.13;;;;;;;2.66;100.00;97179.19;5133852;27;20029;-75
2023/12/13 00:50:09;;;;;;;68.68;32.58;;;;;;;2.78;100.00;97182.28;5112337;27;20105;-75
2023/12/13 00:52:35;;;;;;;72.80;30.58;;;;;;;2.84;100.00;97187.31;5134035;27;20102;-75
2023/12/13 00:55:01;;;;;;;74.75;31.40;;;;;;;2.67;100.00;97159.78;5116367;27;20035;-76
2023/12/13 00:57:27;;;;;;;69.50;30.20;;;;;;;2.72;100.00;97178.09;5116674;27;20023;-75
2023/12/13 00:59:53;;;;;;;68.10;30.80;;;;;;;2.88;100.00;97187.16;5133826;27;20049;-76
2023/12/13 01:02:18;;;;;;;70.47;30.45;;;;;;;2.73;100.00;97162.22;5133606;27;20031;-76
2023/12/13 01:04:44;;;;;;;69.93;31.10;;;;;;;2.81;100.00;97163.69;5133466;27;20059;-76
2023/12/13 01:15:13;;;;;;;62.50;28.98;;;;;;;2.61;100.00;97112.50;5010474;27;20033;-80
2023/12/13 01:17:38;;;;;;;59.95;26.33;;;;;;;2.78;100.00;97110.97;5119089;27;20042;-75
2023/12/13 01:20:09;;;;;;;60.80;25.85;;;;;;;2.95;100.00;97124.41;5123278;27;20031;-76
2023/12/13 01:22:35;;;;;;;38.88;14.80;;;;;;;2.81;100.00;97105.59;5116855;27;20121;-75
2023/12/13 01:25:02;;;;;;;31.50;14.85;;;;;;;2.78;100.00;97087.22;5116084;27;20035;-75
2023/12/13 01:27:28;;;;;;;35.63;17.48;;;;;;;2.87;100.00;97100.94;5133223;27;20541;-76
2023/12/13 01:29:54;;;;;;;47.80;20.30;;;;;;;2.86;100.00;97080.72;5127918;27;20042;-76
2023/12/13 01:32:20;;;;;;;53.55;24.70;;;;;;;2.87;100.00;97079.81;5151785;27;20267;-76
2023/12/13 01:34:45;;;;;;;54.17;23.73;;;;;;;2.77;100.00;97054.66;5110504;28;20423;-76
2023/12/13 01:37:11;;;;;;;46.47;23.38;;;;;;;3.04;100.00;97080.03;5112575;27;20022;-77
2023/12/13 01:39:37;;;;;;;47.50;22.75;;;;;;;3.01;100.00;97061.66;5111693;27;20482;-77
2023/12/13 01:42:04;;;;;;;52.90;24.60;;;;;;;3.13;100.00;97082.28;5133141;27;20109;-75
2023/12/13 01:44:29;;;;;;;53.10;24.27;;;;;;;3.23;100.00;97102.09;5115902;27;20027;-76
2023/12/13 01:46:55;;;;;;;53.50;25.40;;;;;;;3.22;100.00;97083.69;5127509;27;20080;-76
2023/12/13 01:49:21;;;;;;;57.63;28.27;;;;;;;3.25;100.00;97094.13;5133278;27;20022;-74
2023/12/13 01:51:46;;;;;;;50.72;23.50;;;;;;;3.07;100.00;97111.59;5133402;27;20018;-76
2023/12/13 01:54:15;;;;;;;48.55;23.15;;;;;;;2.98;100.00;97111.09;5130092;27;20052;-77
2023/12/13 01:56:42;;;;;;;49.22;22.73;;;;;;;2.90;100.00;97118.44;5112904;27;20031;-77
2023/12/13 01:59:08;;;;;;;54.03;22.77;;;;;;;2.82;100.00;97110.81;5133260;27;20026;-76
2023/12/13 02:01:34;;;;;;;43.25;20.45;;;;;;;2.83;100.00;97085.28;5110008;27;20078;-77
2023/12/13 02:04:01;;;;;;;38.30;19.08;;;;;;;2.90;100.00;97074.41;5115909;27;20121;-76
2023/12/13 02:06:26;;;;;;;37.17;16.98;;;;;;;2.90;100.00;97074.41;5115963;27;20034;-87
2023/12/13 02:08:52;;;;;;;39.72;17.80;;;;;;;2.93;100.00;97079.56;5155697;27;20031;-78
2023/12/13 02:11:18;;;;;;;32.97;16.50;;;;;;;3.01;100.00;97071.34;5136783;27;20029;-78
2023/12/13 02:13:43;;;;;;;35.47;16.63;;;;;;;3.07;100.00;97071.09;5137465;27;20084;-77
2023/12/13 02:16:09;;;;;;;34.55;16.35;;;;;;;3.11;100.00;97070.03;5119901;27;20027;-76
2023/12/13 02:18:34;;;;;;;35.60;17.80;;;;;;;3.01;100.00;97037.88;5136800;27;20034;-76
2023/12/13 02:21:00;;;;;;;32.65;16.27;;;;;;;3.25;100.00;97055.38;5113196;27;20031;-76
2023/12/13 02:23:26;;;;;;;31.48;16.15;;;;;;;3.28;100.00;97046.44;5117312;27;20105;-77
2023/12/13 02:26:07;;;;;;;32.80;15.65;;;;;;;3.46;100.00;97044.81;5131816;27;20035;-76
2023/12/13 02:28:32;;;;;;;32.42;14.93;;;;;;;3.47;100.00;97042.13;5118402;27;20037;-76
2023/12/13 02:31:03;;;;;;;35.67;16.30;;;;;;;3.42;100.00;97028.22;5119662;27;20034;-76
2023/12/13 02:33:29;;;;;;;30.52;14.68;;;;;;;3.50;100.00;97015.56;5113768;27;20416;-76
2023/12/13 02:35:59;;;;;;;35.42;16.17;;;;;;;3.44;100.00;97018.47;5136834;27;20509;-76
2023/12/13 02:38:25;;;;;;;29.58;15.30;;;;;;;3.40;100.00;97013.34;5136318;27;20019;-77
2023/12/13 02:40:52;;;;;;;35.30;16.00;;;;;;;3.41;100.00;97031.81;5155056;27;20025;-77
2023/12/13 02:43:19;;;;;;;37.78;15.20;;;;;;;3.41;100.00;97030.94;5119532;27;20505;-76
2023/12/13 02:45:44;;;;;;;31.67;16.23;;;;;;;3.32;100.00;97037.47;5115671;27;20023;-75
2023/12/13 02:48:10;;;;;;;34.33;15.98;;;;;;;3.42;100.00;97049.38;5105460;27;20023;-76
2023/12/13 02:50:38;;;;;;;35.10;15.20;;;;;;;3.49;100.00;97032.34;5119427;27;20503;-76
2023/12/13 02:53:06;;;;;;;29.73;15.25;;;;;;;3.38;100.00;97031.94;5119533;27;20102;-75
2023/12/13 02:55:32;;;;;;;28.13;14.35;;;;;;;3.33;100.00;96996.88;5136154;27;20022;-77
2023/12/13 02:57:59;;;;;;;30.88;15.55;;;;;;;3.24;100.00;96949.72;5129243;27;20029;-75
2023/12/13 03:00:25;;;;;;;32.22;14.90;;;;;;;3.25;100.00;96952.31;5118248;27;20174;-77
2023/12/13 03:02:51;;;;;;;29.48;14.52;;;;;;;3.26;100.00;96963.75;5111837;27;20062;-76
2023/12/13 03:05:17;;;;;;;33.83;16.50;;;;;;;3.37;100.00;96972.06;5118945;27;20023;-75
2023/12/13 03:07:42;;;;;;;34.22;16.25;;;;;;;3.32;100.00;96979.34;5115811;27;20133;-76
2023/12/13 03:10:08;;;;;;;31.67;14.82;;;;;;;3.43;100.00;96992.06;5118591;27;20014;-76
2023/12/13 03:12:37;;;;;;;38.90;17.52;;;;;;;3.47;100.00;97007.75;5135733;27;20105;-77
2023/12/13 03:15:03;;;;;;;37.28;17.17;;;;;;;3.46;100.00;96998.09;5115894;27;20033;-76
2023/12/13 03:17:28;;;;;;;44.33;19.80;;;;;;;3.50;100.00;97020.84;5118434;27;20022;-76
2023/12/13 03:19:54;;;;;;;37.65;18.95;;;;;;;3.60;100.00;97008.94;5118629;27;20219;-76
2023/12/13 03:22:19;;;;;;;42.53;19.27;;;;;;;3.57;100.00;97014.34;5154024;27;20023;-75
2023/12/13 03:24:45;;;;;;;43.00;20.90;;;;;;;3.65;100.00;97027.25;5135671;27;20072;-77
2023/12/13 03:27:11;;;;;;;51.90;21.83;;;;;;;3.62;100.00;97006.22;5129821;27;20026;-76
2023/12/13 03:29:37;;;;;;;46.67;21.95;;;;;;;3.52;100.00;96986.41;5118166;27;20030;-76
2023/12/13 03:32:03;;;;;;;50.08;22.20;;;;;;;3.76;100.00;97011.75;5135256;27;20033;-76
2023/12/13 03:34:29;;;;;;;43.20;21.75;;;;;;;3.55;100.00;96960.69;5129860;27;20508;-77
2023/12/13 03:36:54;;;;;;;52.65;24.52;;;;;;;3.63;100.00;96985.00;5114653;27;20055;-80
2023/12/13 03:39:20;;;;;;;50.70;23.08;;;;;;;3.49;100.00;96987.41;5116056;27;20034;-77
2023/12/13 03:41:55;;;;;;;45.83;21.00;;;;;;;3.23;100.00;96959.44;5135332;27;20027;-78
2023/12/13 03:44:20;;;;;;;37.53;17.20;;;;;;;3.25;100.00;96972.59;5135331;27;20023;-75
2023/12/13 03:46:46;;;;;;;38.45;18.63;;;;;;;3.41;100.00;96983.38;5153684;27;20023;-76
2023/12/13 03:49:12;;;;;;;35.97;18.10;;;;;;;3.46;100.00;96990.16;5135083;27;20019;-77
2023/12/13 03:51:37;;;;;;;37.10;15.98;;;;;;;3.46;100.00;96984.88;5117605;27;20090;-76
2023/12/13 03:54:03;;;;;;;37.67;17.40;;;;;;;3.41;100.00;96981.59;5135012;27;20011;-75
2023/12/13 03:56:29;;;;;;;44.40;19.95;;;;;;;3.45;100.00;96984.94;5133123;27;20029;-75
2023/12/13 03:59:10;;;;;;;36.63;17.35;;;;;;;3.49;100.00;96974.19;5131642;27;20102;-78
2023/12/13 04:01:55;;;;;;;31.48;16.30;;;;;;;3.52;100.00;96967.88;5109129;27;20515;-76
2023/12/13 04:04:23;;;;;;;39.78;16.65;;;;;;;3.20;100.00;96953.41;5130673;27;20087;-77
2023/12/13 04:06:49;;;;;;;41.70;18.17;;;;;;;3.52;100.00;96984.63;5110592;27;20033;-78
2023/12/13 04:09:15;;;;;;;38.30;17.13;;;;;;;3.51;100.00;96977.59;5134907;27;20019;-76
2023/12/13 04:11:41;;;;;;;49.80;19.77;;;;;;;3.49;100.00;97008.53;5132180;27;20057;-76
2023/12/13 04:14:06;;;;;;;45.15;20.00;;;;;;;3.49;100.00;96997.09;5116205;27;20022;-76
2023/12/13 04:16:32;;;;;;;47.78;22.58;;;;;;;3.42;100.00;97012.34;5115140;27;20026;-75
2023/12/13 04:19:03;;;;;;;61.28;24.88;;;;;;;3.37;100.00;97011.72;5115351;27;20026;-78
2023/12/13 04:21:29;;;;;;;64.47;28.30;;;;;;;3.60;100.00;97021.31;5134234;27;20083;-76
2023/12/13 04:23:55;;;;;;;51.95;24.52;;;;;;;3.49;100.00;96982.09;5117156;27;20026;-76
2023/12/13 04:26:20;;;;;;;67.25;26.90;;;;;;;3.71;100.00;96993.47;5110260;27;20484;-76
2023/12/13 04:28:46;;;;;;;50.13;22.10;;;;;;;3.65;100.00;96959.38;5116812;27;20079;-77
2023/12/13 04:31:11;;;;;;;57.10;25.30;;;;;;;3.83;100.00;96966.47;5132452;27;20541;-76
2023/12/13 04:33:51;;;;;;;77.50;33.55;;;;;;;3.96;100.00;96965.94;5116890;27;20027;-78
2023/12/13 04:36:17;;;;;;;52.78;24.80;;;;;;;3.96;100.00;96952.69;5132749;27;20059;-80
2023/12/13 04:38:43;;;;;;;44.78;21.48;;;;;;;3.75;100.00;96926.28;5119794;27;20113;-80
2023/12/13 04:41:09;;;;;;;48.00;23.27;;;;;;;3.87;100.00;96948.69;5119670;27;20033;-80
2023/12/13 04:43:34;;;;;;;53.33;23.65;;;;;;;3.89;100.00;96949.47;5118803;27;20515;-80
2023/12/13 04:46:00;;;;;;;45.20;21.50;;;;;;;3.84;100.00;96936.44;5110250;27;20031;-80
2023/12/13 04:48:28;;;;;;;52.65;24.45;;;;;;;3.93;100.00;96932.53;5134715;27;20496;-80
2023/12/13 04:50:54;;;;;;;54.85;23.73;;;;;;;3.99;100.00;96955.22;5134665;27;20501;-80
2023/12/13 04:53:28;;;;;;;50.83;23.85;;;;;;;4.00;100.00;96949.00;5118670;27;20019;-80
2023/12/13 04:55:53;;;;;;;50.97;22.83;;;;;;;4.07;100.00;96950.41;5118301;27;20026;-80
2023/12/13 04:58:19;;;;;;;46.97;22.17;;;;;;;4.05;100.00;96945.22;5134688;27;20019;-79
2023/12/13 05:00:44;;;;;;;45.30;20.75;;;;;;;4.11;100.00;96947.56;5134853;27;20053;-79
2023/12/13 05:03:16;;;;;;;45.40;21.95;;;;;;;4.18;100.00;96940.22;5118288;27;20014;-81
2023/12/13 05:05:44;;;;;;;37.80;17.00;;;;;;;4.26;100.00;96912.44;5134653;27;20023;-80
2023/12/13 05:08:12;;;;;;;46.58;20.63;;;;;;;4.32;100.00;96919.22;5154113;27;20271;-80
2023/12/13 05:10:43;;;;;;;46.85;21.17;;;;;;;4.26;100.00;96943.34;5119186;27;20473;-79
2023/12/13 05:13:09;;;;;;;43.95;20.90;;;;;;;4.03;100.00;96946.22;5131696;27;20019;-83
2023/12/13 05:15:38;;;;;;;40.35;18.70;;;;;;;3.99;100.00;96950.78;5131307;27;20027;-80
2023/12/13 05:18:04;;;;;;;38.35;19.48;;;;;;;3.62;100.00;96914.56;5152445;27;20053;-77
2023/12/13 05:20:30;;;;;;;29.45;14.77;;;;;;;3.94;100.00;96939.53;5153257;27;20023;-79
2023/12/13 05:22:56;;;;;;;26.65;12.30;;;;;;;4.51;100.00;96945.69;5117218;27;20026;-80
2023/12/13 05:25:22;;;;;;;7.63;4.07;;;;;;;5.94;100.00;96932.19;5134659;27;20114;-79
2023/12/13 05:27:47;;;;;;;3.70;2.17;;;;;;;7.40;100.00;96908.78;5117134;27;20027;-81
2023/12/13 05:30:13;;;;;;;4.03;2.00;;;;;;;8.17;100.00;96869.38;5134501;27;20170;-79
2023/12/13 05:32:44;;;;;;;3.75;2.72;;;;;;;9.00;100.00;96841.75;5134517;27;20038;-81
2023/12/13 05:35:10;;;;;;;5.07;2.70;;;;;;;9.46;100.00;96831.47;5117958;27;20027;-80
2023/12/13 05:37:36;;;;;;;5.00;3.15;;;;;;;9.76;100.00;96834.69;5134612;27;20502;-80
2023/12/13 05:40:03;;;;;;;19.00;8.40;;;;;;;9.13;100.00;96816.81;5117100;27;20019;-81
2023/12/13 05:42:28;;;;;;;28.88;15.20;;;;;;;8.82;100.00;96835.84;5119322;27;20524;-81
2023/12/13 05:44:54;;;;;;;20.92;11.43;;;;;;;8.48;100.00;96836.34;5121869;27;20034;-81
2023/12/13 05:47:20;;;;;;;16.65;9.02;;;;;;;8.26;100.00;96846.63;5121318;27;20027;-80
2023/12/13 05:49:46;;;;;;;22.20;11.10;;;;;;;8.29;100.00;96862.44;5121486;27;20054;-81
2023/12/13 05:52:14;;;;;;;22.30;11.57;;;;;;;8.07;100.00;96874.44;5121340;27;20027;-81
2023/12/13 05:54:42;;;;;;;23.02;9.88;;;;;;;7.74;100.00;96881.00;5121276;27;20438;-81
2023/12/13 05:57:10;;;;;;;13.48;7.97;;;;;;;7.58;100.00;96854.47;5157087;27;20121;-80
2023/12/13 05:59:36;;;;;;;27.13;12.20;;;;;;;7.59;100.00;96867.69;5156930;27;20029;-80
2023/12/13 06:02:12;;;;;;;30.50;13.20;;;;;;;7.68;100.00;96858.28;5121163;27;20034;-81
2023/12/13 06:04:50;;;;;;;32.70;14.45;;;;;;;7.62;100.00;96850.69;5120990;27;20481;-82
2023/12/13 06:14:08;;;;;;;28.45;12.57;;;;;;;8.09;100.00;96835.25;5114997;27;20091;-79
2023/12/13 06:16:34;;;;;;;12.65;5.78;;;;;;;8.81;100.00;96818.13;5156585;27;20026;-80
2023/12/13 06:18:59;;;;;;;3.83;2.47;;;;;;;9.80;100.00;96809.47;5137879;27;20037;-79
2023/12/13 06:21:25;;;;;;;3.83;1.95;;;;;;;10.22;100.00;96785.03;5156392;27;20023;-81
2023/12/13 06:23:51;;;;;;;9.30;5.03;;;;;;;10.61;100.00;96813.34;5120655;27;20031;-79
2023/12/13 06:26:16;;;;;;;12.70;5.10;;;;;;;10.53;100.00;96806.84;5120488;27;20022;-79
2023/12/13 06:28:42;;;;;;;15.32;5.85;;;;;;;10.41;100.00;96800.59;5156146;27;20029;-80
2023/12/13 06:31:07;;;;;;;14.65;7.05;;;;;;;10.22;100.00;96811.78;5137422;27;20500;-78
2023/12/13 06:33:33;;;;;;;12.65;6.75;;;;;;;10.37;100.00;96796.44;5156008;27;20023;-79
2023/12/13 06:35:58;;;;;;;14.52;6.35;;;;;;;10.51;100.00;96823.03;5156186;27;20537;-81
2023/12/13 06:38:24;;;;;;;24.17;7.88;;;;;;;10.56;100.00;96831.56;5156495;27;20030;-81
2023/12/13 06:40:50;;;;;;;9.63;3.83;;;;;;;10.52;100.00;96819.38;5125106;27;20136;-81
2023/12/13 06:43:16;;;;;;;4.28;2.10;;;;;;;10.97;100.00;96814.25;5124268;27;20030;-81
2023/12/13 06:45:41;;;;;;;3.10;1.75;;;;;;;11.34;100.00;96808.69;5125472;27;20022;-82
2023/12/13 06:48:08;;;;;;;3.75;2.30;;;;;;;11.74;100.00;96803.78;5121233;27;20111;-82
2023/12/13 06:50:34;;;;;;;2.80;1.60;;;;;;;12.08;100.00;96783.22;5120517;27;20409;-80
2023/12/13 06:53:00;;;;;;;4.32;2.35;;;;;;;12.23;100.00;96770.38;5119680;27;20029;-80
2023/12/13 06:55:26;;;;;;;7.20;2.53;;;;;;;12.43;100.00;96773.16;5137073;27;20401;-80
2023/12/13 06:57:51;;;;;;;2.90;1.80;;;;;;;12.78;100.00;96753.28;5137126;27;20061;-80
2023/12/13 07:03:46;;;;;;;4.38;1.80;;;;;;;12.92;99.04;96753.00;5142967;27;20512;-79
2023/12/13 07:06:16;;;;;;;5.15;2.50;;;;;;;12.85;98.83;96763.41;5099394;27;20035;-79
2023/12/13 07:08:42;;;;;;;3.63;2.28;;;;;;;12.76;99.60;96752.56;5099992;27;20030;-80
2023/12/13 07:11:07;;;;;;;4.75;2.03;;;;;;;12.87;96.90;96772.16;5099402;27;20501;-81
2023/12/13 07:13:33;;;;;;;4.78;3.35;;;;;;;12.89;94.62;96758.59;5099312;27;20034;-79
2023/12/13 07:15:58;;;;;;;3.03;2.13;;;;;;;12.86;96.36;96765.06;5099122;27;20058;-80
2023/12/13 07:18:25;;;;;;;4.07;1.65;;;;;;;13.03;93.12;96753.78;5099132;27;20027;-80
2023/12/13 07:20:53;;;;;;;3.22;1.92;;;;;;;13.18;91.56;96743.63;5098961;27;20209;-81
2023/12/13 07:23:19;;;;;;;9.70;2.67;;;;;;;13.23;89.81;96745.88;5099069;27;20033;-80
2023/12/13 07:25:45;;;;;;;5.57;3.15;;;;;;;13.16;90.34;96740.22;5116208;27;20051;-80
2023/12/13 07:28:13;;;;;;;2.97;2.03;;;;;;;13.12;90.22;96744.13;5115754;27;20030;-79
2023/12/13 07:30:41;;;;;;;2.75;2.00;;;;;;;13.16;89.61;96750.09;5099148;27;20019;-81
2023/12/13 07:33:08;;;;;;;10.45;3.65;;;;;;;13.06;90.90;96736.56;5098948;27;20019;-80
2023/12/13 07:35:34;;;;;;;3.20;2.17;;;;;;;13.02;91.88;96727.06;5098887;27;20367;-80
2023/12/13 07:38:00;;;;;;;2.75;1.55;;;;;;;13.05;92.16;96735.72;5098738;27;20023;-79
2023/12/13 07:40:25;;;;;;;3.72;1.95;;;;;;;12.91;92.43;96724.44;5098658;27;20047;-81
2023/12/13 07:42:51;;;;;;;2.00;1.67;;;;;;;12.90;92.73;96728.97;5098547;27;20034;-80
2023/12/13 07:45:16;;;;;;;1.85;1.30;;;;;;;12.99;92.32;96727.31;5098635;27;20387;-80
2023/12/13 07:47:43;;;;;;;2.40;1.15;;;;;;;13.04;90.79;96744.75;5115791;27;20051;-80
2023/12/13 07:50:09;;;;;;;2.65;1.60;;;;;;;13.07;90.05;96743.66;5115723;27;20019;-81
2023/12/13 07:52:34;;;;;;;2.80;1.40;;;;;;;13.05;90.47;96733.03;5115875;27;20020;-80
2023/12/13 07:58:22;;;;;;;1.73;1.27;;;;;;;13.51;86.34;96754.16;5133905;27;20034;-80
2023/12/13 08:00:47;;;;;;;2.85;1.80;;;;;;;13.63;84.06;96728.03;5097963;27;20019;-79
2023/12/13 08:03:13;;;;;;;2.35;1.80;;;;;;;13.71;83.55;96738.13;5098220;27;20080;-79
2023/12/13 08:09:02;;;;;;;7.20;2.67;;;;;;;13.74;83.88;96743.25;5134184;27;20091;-79
2023/12/13 08:11:28;;;;;;;3.42;1.98;;;;;;;13.85;82.91;96744.00;5098147;27;20043;-80
2023/12/13 08:13:53;;;;;;;5.75;3.15;;;;;;;13.81;81.89;96726.44;5098071;27;20042;-79
2023/12/13 08:16:19;;;;;;;8.20;2.85;;;;;;;13.91;80.94;96732.69;5097743;27;20034;-78
2023/12/13 08:18:45;;;;;;;5.05;2.42;;;;;;;14.01;79.85;96730.06;5115086;27;20027;-78
2023/12/13 08:21:11;;;;;;;3.25;2.13;;;;;;;14.07;78.97;96708.00;5097898;27;20023;-79
2023/12/13 08:23:36;;;;;;;4.57;2.22;;;;;;;13.99;80.38;96715.91;5114885;27;20421;-79
2023/12/13 08:26:02;;;;;;;4.53;2.20;;;;;;;14.27;82.20;96722.34;5097814;27;20038;-79
2023/12/13 08:28:29;;;;;;;10.48;2.22;;;;;;;14.26;77.60;96716.13;5097555;27;20025;-80
2023/12/13 08:30:54;;;;;;;2.75;1.80;;;;;;;14.24;78.46;96725.31;5114876;27;20478;-79
2023/12/13 08:33:20;;;;;;;2.95;1.88;;;;;;;14.29;77.72;96712.28;5097506;27;20027;-80
2023/12/13 08:35:47;;;;;;;1.88;1.17;;;;;;;14.19;77.72;96706.03;5114997;27;20083;-81
2023/12/13 08:41:35;;;;;;;4.40;2.10;;;;;;;14.06;82.63;96708.97;5133373;27;20034;-80
2023/12/13 08:44:00;;;;;;;4.90;2.08;;;;;;;14.18;80.32;96712.44;5097364;27;20027;-81
2023/12/13 08:46:26;;;;;;;4.10;2.40;;;;;;;14.08;80.66;96728.53;5097504;27;20379;-81
2023/12/13 08:48:51;;;;;;;3.97;2.55;;;;;;;13.87;81.57;96733.94;5097450;27;20039;-80
2023/12/13 08:51:17;;;;;;;4.90;2.05;;;;;;;13.77;84.09;96745.66;5082108;28;20081;-81
2023/12/13 08:53:43;;;;;;;3.03;2.20;;;;;;;13.74;84.65;96741.41;5077018;28;20417;-79
2023/12/13 08:56:09;;;;;;;12.13;4.18;;;;;;;13.75;83.98;96753.00;5077102;28;20019;-80
2023/12/13 08:58:36;;;;;;;4.82;2.35;;;;;;;13.62;83.38;96738.94;5077112;28;20080;-80
2023/12/13 09:01:01;;;;;;;9.20;1.73;;;;;;;13.47;83.98;96733.06;5076886;28;20039;-80
2023/12/13 09:03:27;;;;;;;4.38;2.55;;;;;;;13.43;86.08;96712.81;5085234;27;20411;-81
2023/12/13 09:09:31;;;;;;;1.60;1.17;;;;;;;13.47;85.97;96712.41;5133135;27;20077;-80
2023/12/13 09:11:59;;;;;;;2.72;1.85;;;;;;;13.36;85.76;96707.13;5097249;27;20554;-80
2023/12/13 09:14:27;;;;;;;3.03;2.13;;;;;;;13.35;86.19;96689.28;5114195;27;20490;-80
2023/12/13 09:16:52;;;;;;;3.80;1.52;;;;;;;13.35;84.89;96664.28;5097101;28;20034;-83
2023/12/13 09:19:18;;;;;;;3.00;1.80;;;;;;;13.29;87.07;96671.03;5114472;27;20023;-82
2023/12/13 09:21:44;;;;;;;3.25;1.85;;;;;;;13.37;87.66;96660.47;5096797;27;20122;-82
2023/12/13 09:24:10;;;;;;;2.10;1.65;;;;;;;13.36;87.34;96682.09;5097088;27;20031;-82
2023/12/13 09:26:35;;;;;;;2.53;1.80;;;;;;;13.40;87.97;96679.00;5114323;28;20023;-82
2023/12/13 09:29:02;;;;;;;6.82;2.17;;;;;;;13.47;87.84;96664.03;5097126;27;20019;-81
2023/12/13 09:31:28;;;;;;;4.22;1.73;;;;;;;13.52;86.70;96680.63;5097098;27;20034;-81
2023/12/13 09:33:54;;;;;;;10.43;3.75;;;;;;;13.72;86.36;96648.47;5096734;28;20027;-80
2023/12/13 09:36:19;;;;;;;47.30;12.43;;;;;;;14.01;85.61;96670.91;5096855;27;20183;-81
2023/12/13 09:38:46;;;;;;;5.57;2.70;;;;;;;14.06;84.54;96663.25;5096722;28;20030;-80
2023/12/13 09:41:17;;;;;;;3.40;2.22;;;;;;;14.15;83.64;96665.13;5096701;28;20490;-80
2023/12/13 09:43:43;;;;;;;3.25;1.92;;;;;;;14.23;83.32;96651.84;5096691;28;20080;-81
2023/12/13 09:46:13;;;;;;;7.00;2.00;;;;;;;14.33;82.17;96633.91;5096595;28;20031;-81
2023/12/13 09:48:39;;;;;;;6.32;2.65;;;;;;;14.43;81.30;96644.66;5096738;28;20038;-80
2023/12/13 09:51:06;;;;;;;2.90;1.77;;;;;;;14.53;79.16;96632.06;5096445;28;20027;-81
2023/12/13 09:53:33;;;;;;;2.78;1.88;;;;;;;14.68;79.96;96652.16;5096567;28;20099;-81
2023/12/13 09:56:00;;;;;;;3.53;2.30;;;;;;;14.77;80.59;96631.63;5113655;28;20405;-81
2023/12/13 09:58:26;;;;;;;3.78;2.40;;;;;;;14.87;78.68;96651.31;5096735;28;20086;-80
2023/12/13 10:00:52;;;;;;;2.83;1.52;;;;;;;14.91;77.92;96647.34;5096130;28;20023;-80
2023/12/13 10:03:18;;;;;;;9.38;3.17;;;;;;;14.96;79.00;96642.38;5096457;28;20048;-80
2023/12/13 10:05:48;;;;;;;2.17;1.25;;;;;;;14.97;77.47;96636.00;5096445;28;20414;-80
2023/12/13 10:08:14;;;;;;;3.90;2.30;;;;;;;15.05;77.10;96633.44;5092978;28;20070;-79
2023/12/13 10:10:42;;;;;;;4.35;2.67;;;;;;;14.90;77.16;96641.09;5076021;28;20031;-80
2023/12/13 10:13:10;;;;;;;2.63;1.80;;;;;;;14.84;77.92;96636.31;5093134;28;20027;-81
2023/12/13 10:15:35;;;;;;;5.43;1.90;;;;;;;14.68;78.69;96627.09;5110227;28;20513;-80
2023/12/13 10:18:01;;;;;;;7.25;2.95;;;;;;;14.63;78.87;96603.31;5102177;28;20071;-78
2023/12/13 10:20:28;;;;;;;3.60;1.70;;;;;;;14.64;79.22;96603.16;5113580;28;20114;-80
2023/12/13 10:22:54;;;;;;;4.45;2.60;;;;;;;14.60;80.66;96593.69;5096336;28;20034;-81
2023/12/13 10:25:20;;;;;;;3.90;2.78;;;;;;;14.50;81.96;96594.66;5096377;28;20493;-82
2023/12/13 10:27:46;;;;;;;2.50;1.98;;;;;;;14.55;80.65;96590.56;5097173;27;20051;-80
2023/12/13 10:30:12;;;;;;;4.88;2.65;;;;;;;14.57;82.77;96606.56;5099801;27;20070;-79
2023/12/13 10:32:39;;;;;;;3.33;2.30;;;;;;;14.53;82.20;96586.31;5100241;27;20030;-81
2023/12/13 10:35:54;;;;;;;5.85;3.13;;;;;;;14.56;82.08;96581.50;5100169;27;20459;-82
2023/12/13 10:38:23;;;;;;;4.20;2.92;;;;;;;14.63;82.04;96589.84;5117055;27;20406;-83
2023/12/13 10:40:49;;;;;;;9.02;6.25;;;;;;;14.68;82.69;96603.72;5097772;27;20034;-82
2023/12/13 10:43:15;;;;;;;9.82;5.82;;;;;;;15.08;82.09;96572.03;5099925;27;20474;-78
2023/12/13 10:45:45;;;;;;;5.28;3.08;;;;;;;15.11;78.13;96552.03;5117109;27;20025;-79
2023/12/13 10:48:16;;;;;;;5.35;3.22;;;;;;;15.22;78.22;96548.31;5116829;27;20054;-79
2023/12/13 10:50:45;;;;;;;5.13;2.17;;;;;;;15.25;77.39;96526.47;5099659;27;20019;-80
2023/12/13 10:53:13;;;;;;;4.60;1.52;;;;;;;15.33;77.71;96530.13;5099477;27;20489;-81
2023/12/13 10:55:40;;;;;;;1.30;0.93;;;;;;;15.27;76.67;96530.72;5117281;27;20054;-83
2023/12/13 10:58:06;;;;;;;4.38;1.98;;;;;;;15.18;77.67;96505.53;5099894;27;20084;-79
2023/12/13 11:00:32;;;;;;;1.33;1.17;;;;;;;15.15;77.68;96496.88;5099706;27;20497;-80
2023/12/13 11:03:20;;;;;;;4.80;2.03;;;;;;;15.18;78.61;96507.34;5103607;27;20069;-81
2023/12/13 11:05:45;;;;;;;3.00;1.70;;;;;;;15.10;77.59;96513.47;5119922;27;20022;-81
2023/12/13 11:08:19;;;;;;;1.92;1.52;;;;;;;15.13;77.57;96523.94;5120201;27;20116;-82
2023/12/13 11:11:07;;;;;;;1.40;1.27;;;;;;;15.11;77.65;96476.63;5115096;27;20023;-82
2023/12/13 11:13:39;;;;;;;2.85;1.58;;;;;;;15.03;77.82;96520.47;5098203;27;20053;-78
2023/12/13 11:16:20;;;;;;;;;;;;;;;14.90;78.96;96533.41;5108570;27;20050;-73
2023/12/13 11:18:49;;;;;;;1.75;1.00;;;;;;;14.59;79.69;96526.53;5132854;27;20386;-72
2023/12/13 11:21:27;;;;;;;6.15;2.47;;;;;;;14.40;81.48;96507.72;5133060;27;20094;-72
2023/12/13 11:24:11;;;;;;;3.65;2.58;;;;;;;14.32;83.12;96527.25;5151394;27;20549;-72
2023/12/13 11:26:46;;;;;;;4.55;2.10;;;;;;;14.15;84.76;96509.13;5151480;27;20030;-72
2023/12/13 11:29:27;;;;;;;2.05;1.50;;;;;;;14.30;85.16;96521.19;5133317;27;20035;-73
2023/12/13 11:31:55;;;;;;;16.58;8.10;;;;;;;14.42;85.47;96517.38;5133032;27;20402;-72
2023/12/13 11:34:35;;;;;;;4.80;2.78;;;;;;;14.50;85.33;96504.03;5115103;27;20113;-75
2023/12/13 11:37:02;;;;;;;3.85;2.00;;;;;;;14.65;84.22;96491.81;5115635;27;20525;-73
2023/12/13 11:39:29;;;;;;;2.60;1.70;;;;;;;14.79;81.93;96477.06;5130942;27;20466;-75
2023/12/13 11:41:55;;;;;;;5.68;3.38;;;;;;;14.94;81.88;96469.34;5132894;27;20401;-76
2023/12/13 11:44:21;;;;;;;4.85;1.98;;;;;;;15.01;81.66;96473.13;5132296;27;20109;-74
2023/12/13 11:46:57;;;;;;;2.75;1.77;;;;;;;15.17;79.92;96463.41;5132621;27;20109;-74
2023/12/13 11:49:24;;;;;;;4.07;1.67;;;;;;;15.27;79.40;96449.88;5112183;27;20054;-73
2023/12/13 11:51:50;;;;;;;5.60;2.65;;;;;;;15.29;80.55;96474.81;5129945;27;20015;-73
2023/12/13 11:54:16;;;;;;;3.03;1.45;;;;;;;15.36;77.70;96454.38;5129029;27;20027;-73
2023/12/13 11:56:43;;;;;;;8.65;1.83;;;;;;;15.28;78.04;96458.81;5114486;27;20042;-73